createdAt,value
2022-09-14T00:02:07.818Z,6.78
2022-09-14T00:04:37.287Z,13.15
2022-09-14T00:07:07.145Z,9.77
2022-09-14T00:09:36.532Z,6.50
2022-09-14T00:12:05.911Z,8.18
2022-09-14T00:14:35.979Z,8.05
2022-09-14T00:17:05.339Z,6.65
2022-09-14T00:19:34.672Z,5.22
2022-09-14T00:22:03.969Z,6.45
2022-09-14T00:24:35.054Z,8.38
2022-09-14T00:27:05.355Z,8.65
2022-09-14T00:29:34.931Z,11.00
2022-09-14T00:32:04.625Z,9.23
2022-09-14T00:34:34.822Z,4.38
2022-09-14T00:37:04.220Z,3.45
2022-09-14T00:39:33.475Z,11.13
2022-09-14T00:42:02.845Z,5.50
2022-09-14T00:44:32.030Z,8.77
2022-09-14T00:47:04.438Z,7.47
2022-09-14T00:52:11.752Z,3.78
2022-09-14T00:54:51.527Z,8.38
2022-09-14T00:57:22.189Z,9.00
2022-09-14T00:59:54.535Z,12.57
2022-09-14T01:04:55.727Z,5.25
2022-09-14T01:07:45.009Z,7.60
2022-09-14T01:10:32.561Z,10.60
2022-09-14T01:13:27.993Z,8.02
2022-09-14T01:16:00.194Z,3.53
2022-09-14T01:21:16.923Z,4.18
2022-09-14T01:23:54.847Z,8.98
2022-09-14T01:26:48.325Z,5.63
2022-09-14T01:29:29.793Z,3.13
2022-09-14T01:32:06.354Z,4.13
2022-09-14T01:34:53.730Z,3.08
2022-09-14T01:37:36.466Z,7.78
2022-09-14T01:40:28.562Z,7.10
2022-09-14T01:43:11.073Z,2.80
2022-09-14T01:45:49.341Z,7.88
2022-09-14T01:48:23.368Z,5.00
2022-09-14T01:51:01.179Z,7.80
2022-09-14T01:53:58.483Z,7.10
2022-09-14T01:56:35.378Z,6.18
2022-09-14T01:59:19.308Z,8.48
2022-09-14T02:01:59.195Z,5.72
2022-09-14T02:04:53.161Z,6.70
2022-09-14T02:07:23.936Z,8.00
2022-09-14T02:09:55.635Z,4.43
2022-09-14T02:12:25.816Z,4.20
2022-09-14T02:14:56.913Z,5.53
2022-09-14T02:17:26.383Z,11.23
2022-09-14T02:20:02.139Z,3.47
2022-09-14T02:22:33.000Z,6.07
2022-09-14T02:25:02.881Z,6.80
2022-09-14T02:27:32.258Z,6.47
2022-09-14T02:30:01.711Z,6.60
2022-09-14T02:32:49.696Z,9.23
2022-09-14T02:35:37.826Z,3.00
2022-09-14T02:38:28.090Z,3.10
2022-09-14T02:41:20.574Z,8.10
2022-09-14T02:44:12.694Z,5.45
2022-09-14T02:46:57.109Z,2.22
2022-09-14T02:49:54.836Z,7.38
2022-09-14T02:52:55.046Z,5.72
2022-09-14T02:55:28.907Z,4.45
2022-09-14T02:58:03.327Z,5.40
2022-09-14T03:00:36.769Z,12.10
2022-09-14T03:03:08.211Z,5.47
2022-09-14T03:05:38.264Z,6.63
2022-09-14T03:08:07.851Z,2.95
2022-09-14T03:10:37.359Z,7.20
2022-09-14T03:13:07.178Z,3.20
2022-09-14T03:15:36.486Z,6.20
2022-09-14T03:18:05.773Z,16.50
2022-09-14T03:20:36.713Z,2.00
2022-09-14T03:23:09.154Z,5.10
2022-09-14T03:25:42.339Z,8.02
2022-09-14T03:28:12.559Z,3.90
2022-09-14T03:30:42.173Z,8.00
2022-09-14T03:33:12.186Z,6.70
2022-09-14T03:35:43.141Z,6.15
2022-09-14T03:38:12.448Z,10.40
2022-09-14T03:40:41.932Z,14.82
2022-09-14T03:43:12.612Z,9.70
2022-09-14T03:45:42.299Z,5.30
2022-09-14T03:48:15.391Z,6.38
2022-09-14T03:50:44.969Z,3.83
2022-09-14T03:53:17.375Z,12.57
2022-09-14T03:58:16.018Z,1.58
2022-09-14T04:00:45.340Z,5.47
2022-09-14T04:03:14.685Z,3.70
2022-09-14T04:05:45.344Z,4.88
2022-09-14T04:08:14.613Z,5.28
2022-09-14T04:10:43.921Z,14.63
2022-09-14T04:13:13.204Z,4.32
2022-09-14T04:15:42.588Z,6.25
2022-09-14T04:18:12.327Z,3.60
2022-09-14T04:20:41.714Z,6.70
2022-09-14T04:23:12.364Z,4.88
2022-09-14T04:25:41.705Z,3.53
2022-09-14T04:28:20.298Z,6.88
2022-09-14T04:31:03.963Z,4.65
2022-09-14T04:33:35.443Z,2.92
2022-09-14T04:36:10.603Z,7.60
2022-09-14T04:38:40.932Z,7.00
2022-09-14T04:41:16.089Z,8.10
2022-09-14T04:43:46.831Z,5.03
2022-09-14T04:46:19.587Z,7.35
2022-09-14T04:48:49.822Z,6.07
2022-09-14T04:51:22.181Z,5.13
2022-09-14T04:53:54.551Z,5.97
2022-09-14T04:56:25.231Z,12.18
2022-09-14T04:59:00.282Z,8.63
2022-09-14T05:01:32.766Z,10.20
2022-09-14T05:04:02.269Z,11.25
2022-09-14T05:06:35.143Z,10.27
2022-09-14T05:09:06.356Z,16.00
2022-09-14T05:11:37.696Z,12.65
2022-09-14T05:14:07.901Z,13.40
2022-09-14T05:16:39.480Z,11.35
2022-09-14T05:19:13.722Z,9.88
2022-09-14T05:21:43.084Z,14.60
2022-09-14T05:24:18.311Z,5.88
2022-09-14T05:26:48.887Z,11.65
2022-09-14T05:29:20.239Z,10.02
2022-09-14T05:31:49.870Z,8.02
2022-09-14T05:34:19.318Z,9.38
2022-09-14T05:36:49.107Z,10.55
2022-09-14T05:39:23.039Z,6.20
2022-09-14T05:41:52.820Z,8.68
2022-09-14T05:44:22.079Z,7.72
2022-09-14T05:46:51.565Z,8.90
2022-09-14T05:49:20.921Z,8.45
2022-09-14T05:51:50.217Z,5.30
2022-09-14T05:54:19.523Z,8.30
2022-09-14T05:56:48.862Z,7.82
2022-09-14T05:59:18.206Z,12.48
2022-09-14T06:01:48.773Z,7.28
2022-09-14T06:04:18.050Z,5.90
2022-09-14T06:07:01.722Z,11.20
2022-09-14T06:09:36.763Z,9.25
2022-09-14T06:12:06.149Z,5.75
2022-09-14T06:14:35.383Z,5.20
2022-09-14T06:17:05.768Z,9.52
2022-09-14T06:19:35.197Z,10.15
2022-09-14T06:22:04.538Z,7.35
2022-09-14T06:24:33.820Z,9.25
2022-09-14T06:27:03.054Z,8.32
2022-09-14T06:29:32.289Z,8.98
2022-09-14T06:32:01.533Z,11.80
2022-09-14T06:34:30.792Z,9.07
2022-09-14T06:37:00.159Z,8.85
2022-09-14T06:39:29.418Z,16.00
2022-09-14T06:41:58.714Z,7.50
2022-09-14T06:44:31.232Z,6.18
2022-09-14T06:47:00.738Z,6.43
2022-09-14T06:49:30.198Z,8.52
2022-09-14T06:52:00.900Z,5.22
2022-09-14T06:54:30.377Z,5.70
2022-09-14T06:56:59.648Z,6.63
2022-09-14T06:59:29.075Z,6.88
2022-09-14T07:01:58.389Z,6.90
2022-09-14T07:04:27.686Z,4.97
2022-09-14T07:06:56.976Z,5.88
2022-09-14T07:09:26.431Z,6.78
2022-09-14T07:11:56.501Z,7.78
2022-09-14T07:14:29.238Z,7.20
2022-09-14T07:17:00.912Z,9.68
2022-09-14T07:19:30.176Z,6.75
2022-09-14T07:21:59.456Z,7.43
2022-09-14T07:24:28.688Z,11.60
2022-09-14T07:26:58.011Z,8.77
2022-09-14T07:29:27.358Z,8.68
2022-09-14T07:31:56.697Z,4.30
2022-09-14T07:34:26.544Z,6.28
2022-09-14T07:36:55.808Z,7.95
2022-09-14T07:39:25.068Z,7.78
2022-09-14T07:41:54.349Z,10.50
2022-09-14T07:44:23.738Z,8.18
2022-09-14T07:46:53.032Z,5.43
2022-09-14T07:49:22.486Z,5.25
2022-09-14T07:51:51.887Z,9.52
2022-09-14T07:54:21.713Z,10.10
2022-09-14T07:56:51.375Z,11.25
2022-09-14T07:59:37.157Z,8.23
2022-09-14T08:02:14.371Z,8.30
2022-09-14T08:04:44.050Z,7.15
2022-09-14T08:07:13.561Z,10.65
2022-09-14T08:09:42.824Z,7.70
2022-09-14T08:12:12.153Z,5.82
2022-09-14T08:14:43.903Z,5.15
2022-09-14T08:17:13.414Z,15.23
2022-09-14T08:19:42.639Z,13.48
2022-09-14T08:22:12.008Z,11.23
2022-09-14T08:24:42.548Z,8.73
2022-09-14T08:27:16.637Z,7.78
2022-09-14T08:29:46.599Z,10.50
2022-09-14T08:32:15.872Z,6.22
2022-09-14T08:34:45.108Z,9.50
2022-09-14T08:37:15.130Z,7.50
2022-09-14T08:39:50.893Z,7.30
2022-09-14T08:42:25.128Z,10.35
2022-09-14T08:45:09.852Z,6.80
2022-09-14T08:47:41.730Z,8.40
2022-09-14T08:50:20.788Z,7.60
2022-09-14T08:52:53.383Z,7.07
2022-09-14T08:55:49.890Z,7.35
2022-09-14T08:58:45.128Z,10.00
2022-09-14T09:01:33.644Z,10.77
2022-09-14T09:04:20.722Z,7.60
2022-09-14T09:06:58.399Z,8.50
2022-09-14T09:09:52.381Z,8.02
2022-09-14T09:12:24.819Z,5.78
2022-09-14T09:15:03.764Z,8.45
2022-09-14T09:17:47.367Z,5.95
2022-09-14T09:20:20.356Z,3.15
2022-09-14T09:23:11.509Z,6.18
2022-09-14T09:25:50.050Z,7.10
2022-09-14T09:28:19.944Z,2.83
2022-09-14T09:30:49.589Z,5.28
2022-09-14T09:33:23.915Z,7.03
2022-09-14T09:36:18.473Z,5.45
2022-09-14T09:38:47.743Z,4.93
2022-09-14T09:41:27.147Z,4.95
2022-09-14T09:44:09.494Z,5.90
2022-09-14T09:46:42.262Z,4.45
2022-09-14T09:49:39.014Z,4.40
2022-09-14T09:52:19.463Z,4.05
2022-09-14T09:54:54.250Z,3.03
2022-09-14T09:57:26.323Z,11.00
2022-09-14T10:00:12.360Z,8.77
2022-09-14T10:02:42.926Z,4.78
2022-09-14T10:05:12.257Z,4.88
2022-09-14T10:08:20.087Z,3.83
2022-09-14T10:10:49.403Z,6.70
2022-09-14T10:13:37.693Z,5.28
2022-09-14T10:16:19.906Z,2.53
2022-09-14T10:18:55.373Z,6.80
2022-09-14T10:21:27.244Z,5.07
2022-09-14T10:24:19.862Z,9.98
2022-09-14T10:29:27.146Z,5.72
2022-09-14T10:32:03.127Z,9.10
2022-09-14T10:34:33.923Z,3.17
2022-09-14T10:37:29.578Z,5.13
2022-09-14T10:40:15.763Z,10.63
2022-09-14T10:43:10.711Z,8.60
2022-09-14T10:45:53.187Z,6.20
2022-09-14T10:51:30.849Z,6.05
2022-09-14T10:54:15.050Z,4.07
2022-09-14T10:57:04.251Z,5.97
2022-09-14T10:59:53.096Z,5.70
2022-09-14T11:02:25.472Z,3.97
2022-09-14T11:05:12.279Z,6.00
2022-09-14T11:08:05.833Z,4.30
2022-09-14T11:11:13.667Z,8.40
2022-09-14T11:14:05.315Z,5.43
2022-09-14T11:16:59.497Z,4.13
2022-09-14T11:19:34.940Z,7.32
2022-09-14T11:22:41.986Z,4.55
2022-09-14T11:25:22.447Z,5.35
2022-09-14T11:28:00.262Z,6.30
2022-09-14T11:30:53.801Z,8.07
2022-09-14T11:33:38.341Z,5.68
2022-09-14T11:36:16.705Z,6.82
2022-09-14T11:38:56.227Z,3.88
2022-09-14T11:41:31.608Z,9.80
2022-09-14T11:44:06.447Z,4.00
2022-09-14T11:46:40.759Z,5.97
2022-09-14T11:49:28.874Z,4.63
2022-09-14T11:52:17.418Z,6.55
2022-09-14T11:54:47.167Z,5.05
2022-09-14T11:57:20.875Z,7.57
2022-09-14T11:59:54.103Z,5.55
2022-09-14T12:02:26.477Z,7.03
2022-09-14T12:05:08.204Z,4.50
2022-09-14T12:07:45.403Z,4.05
2022-09-14T12:10:17.764Z,9.55
2022-09-14T12:13:08.513Z,6.25
2022-09-14T12:15:41.146Z,2.03
2022-09-14T12:18:10.549Z,5.28
2022-09-14T12:20:52.934Z,5.63
2022-09-14T12:26:35.850Z,7.80
2022-09-14T12:29:28.221Z,4.38
2022-09-14T12:31:57.548Z,5.13
2022-09-14T12:34:31.985Z,3.05
2022-09-14T12:37:32.043Z,3.83
2022-09-14T12:40:23.107Z,3.83
2022-09-14T12:42:52.468Z,5.82
2022-09-14T12:45:51.880Z,6.30
2022-09-14T12:48:49.291Z,8.63
2022-09-14T12:51:39.587Z,8.25
2022-09-14T12:54:13.388Z,10.82
2022-09-14T12:57:09.027Z,14.23
2022-09-14T12:59:47.386Z,8.52
2022-09-14T13:02:29.061Z,13.82
2022-09-14T13:05:00.603Z,11.48
2022-09-14T13:07:36.690Z,9.97
2022-09-14T13:10:09.072Z,17.45
2022-09-14T13:15:23.728Z,7.97
2022-09-14T13:18:08.710Z,9.55
2022-09-14T13:20:38.821Z,8.57
2022-09-14T13:23:22.742Z,8.15
2022-09-14T13:25:53.322Z,12.32
2022-09-14T13:28:23.723Z,11.02
2022-09-14T13:31:04.587Z,10.57
2022-09-14T13:33:33.972Z,7.53
2022-09-14T13:36:05.692Z,7.97
2022-09-14T13:38:39.555Z,9.73
2022-09-14T13:41:13.746Z,6.30
2022-09-14T13:43:44.807Z,9.93
2022-09-14T13:46:18.386Z,12.13
2022-09-14T13:48:49.816Z,7.55
2022-09-14T13:51:19.444Z,3.97
2022-09-14T13:53:54.225Z,6.65
2022-09-14T13:56:31.012Z,5.35
2022-09-14T13:59:12.824Z,5.20
2022-09-14T14:01:44.933Z,4.50
2022-09-14T14:04:38.391Z,5.40
2022-09-14T14:07:27.634Z,5.00
2022-09-14T14:10:01.290Z,9.13
2022-09-14T14:12:36.982Z,8.18
2022-09-14T14:15:13.797Z,8.43
2022-09-14T14:17:44.218Z,8.23
2022-09-14T14:20:34.004Z,10.65
2022-09-14T14:23:22.920Z,11.88
2022-09-14T14:25:57.551Z,13.88
2022-09-14T14:28:30.244Z,11.68
2022-09-14T14:31:07.726Z,10.10
2022-09-14T14:33:38.603Z,10.93
2022-09-14T14:36:10.716Z,14.93
2022-09-14T14:38:40.948Z,14.57
2022-09-14T14:41:10.957Z,9.40
2022-09-14T14:43:44.025Z,9.88
2022-09-14T14:46:13.354Z,10.48
2022-09-14T14:48:42.774Z,8.52
2022-09-14T14:51:16.702Z,7.80
2022-09-14T14:53:46.163Z,9.00
2022-09-14T14:56:16.680Z,9.10
2022-09-14T14:58:47.970Z,6.72
2022-09-14T15:01:17.572Z,6.85
2022-09-14T15:03:47.213Z,5.55
2022-09-14T15:06:22.471Z,5.80
2022-09-14T15:08:56.644Z,7.47
2022-09-14T15:11:26.508Z,5.70
2022-09-14T15:13:56.011Z,11.23
2022-09-14T15:16:25.365Z,5.75
2022-09-14T15:18:54.635Z,4.03
2022-09-14T15:21:23.947Z,4.97
2022-09-14T15:23:53.391Z,5.95
2022-09-14T15:26:23.361Z,6.32
2022-09-14T15:28:52.677Z,6.70
2022-09-14T15:31:22.678Z,5.80
2022-09-14T15:33:52.014Z,3.28
2022-09-14T15:36:52.044Z,3.85
2022-09-14T15:39:29.400Z,7.03
2022-09-14T15:41:59.402Z,8.32
2022-09-14T15:44:29.570Z,4.55
2022-09-14T15:46:59.715Z,8.57
2022-09-14T15:49:29.240Z,6.72
2022-09-14T15:51:59.823Z,5.95
2022-09-14T15:54:35.863Z,5.38
2022-09-14T15:57:08.161Z,4.28
2022-09-14T16:02:07.436Z,5.93
2022-09-14T16:04:41.260Z,14.38
2022-09-14T16:07:12.386Z,5.55
2022-09-14T16:09:42.850Z,4.47
2022-09-14T16:12:15.104Z,5.70
2022-09-14T16:14:45.227Z,7.65
2022-09-14T16:17:14.560Z,7.10
2022-09-14T16:19:46.740Z,7.90
2022-09-14T16:22:16.018Z,9.07
2022-09-14T16:24:45.308Z,6.63
2022-09-14T16:27:14.611Z,8.43
2022-09-14T16:29:43.865Z,6.55
2022-09-14T16:32:13.303Z,10.43
2022-09-14T16:34:42.877Z,7.93
2022-09-14T16:37:12.166Z,8.27
2022-09-14T16:39:41.838Z,8.60
2022-09-14T16:42:11.108Z,7.20
2022-09-14T16:44:40.450Z,7.70
2022-09-14T16:47:09.793Z,5.78
2022-09-14T16:49:39.838Z,8.38
2022-09-14T16:52:09.148Z,8.00
2022-09-14T16:54:38.407Z,7.40
2022-09-14T16:57:07.688Z,8.40
2022-09-14T16:59:36.991Z,10.90
2022-09-14T17:02:06.399Z,9.10
2022-09-14T17:04:35.737Z,7.50
2022-09-14T17:07:05.064Z,10.32
2022-09-14T17:09:34.443Z,7.78
2022-09-14T17:12:03.726Z,7.95
2022-09-14T17:14:34.807Z,8.93
2022-09-14T17:17:04.256Z,10.25
2022-09-14T17:19:33.592Z,8.40
2022-09-14T17:22:03.925Z,9.15
2022-09-14T17:24:33.228Z,8.18
2022-09-14T17:27:02.925Z,9.20
2022-09-14T17:29:32.544Z,12.35
2022-09-14T17:32:01.999Z,9.38
2022-09-14T17:34:31.344Z,10.15
2022-09-14T17:37:00.640Z,11.77
2022-09-14T17:39:30.027Z,9.45
2022-09-14T17:41:59.338Z,11.55
2022-09-14T17:44:31.367Z,12.00
2022-09-14T17:47:01.286Z,11.85
2022-09-14T17:49:30.630Z,9.95
2022-09-14T17:52:01.462Z,11.65
2022-09-14T17:54:30.854Z,9.40
2022-09-14T17:57:00.106Z,13.32
2022-09-14T17:59:29.347Z,8.77
2022-09-14T18:01:58.624Z,13.18
2022-09-14T18:04:28.152Z,9.88
2022-09-14T18:06:57.447Z,10.05
2022-09-14T18:09:27.000Z,8.48
2022-09-14T18:11:58.652Z,15.63
2022-09-14T18:14:28.164Z,8.55
2022-09-14T18:16:59.839Z,11.43
2022-09-14T18:19:29.528Z,19.73
2022-09-14T18:21:58.870Z,11.73
2022-09-14T18:24:28.315Z,10.13
2022-09-14T18:26:57.631Z,11.63
2022-09-14T18:29:29.780Z,12.30
2022-09-14T18:31:59.204Z,8.55
2022-09-14T18:34:29.093Z,10.38
2022-09-14T18:36:58.512Z,8.68
2022-09-14T18:39:28.058Z,11.73
2022-09-14T18:41:57.393Z,11.40
2022-09-14T18:44:26.652Z,11.38
2022-09-14T18:46:55.959Z,11.68
2022-09-14T18:49:25.314Z,12.45
2022-09-14T18:51:54.627Z,8.43
2022-09-14T18:54:27.641Z,14.35
2022-09-14T18:56:57.217Z,12.15
2022-09-14T18:59:26.768Z,9.52
2022-09-14T19:01:56.124Z,11.38
2022-09-14T19:04:27.596Z,13.45
2022-09-14T19:06:56.939Z,10.40
2022-09-14T19:09:26.494Z,10.15
2022-09-14T19:11:55.831Z,11.15
2022-09-14T19:14:25.197Z,10.20
2022-09-14T19:16:54.516Z,9.95
2022-09-14T19:19:27.338Z,12.75
2022-09-14T19:21:56.697Z,12.52
2022-09-14T19:24:27.587Z,10.93
2022-09-14T19:26:56.873Z,11.05
2022-09-14T19:29:28.609Z,10.73
2022-09-14T19:31:58.436Z,10.27
2022-09-14T19:34:30.200Z,12.65
2022-09-14T19:36:59.606Z,7.80
2022-09-14T19:39:29.459Z,9.18
2022-09-14T19:41:59.005Z,13.05
2022-09-14T19:44:28.307Z,13.90
2022-09-14T19:46:58.573Z,9.80
2022-09-14T19:49:28.918Z,11.85
2022-09-14T19:51:58.188Z,12.40
2022-09-14T19:54:27.735Z,10.38
2022-09-14T19:56:57.067Z,11.70
2022-09-14T19:59:26.643Z,12.00
2022-09-14T20:01:56.722Z,14.38
2022-09-14T20:04:26.248Z,11.63
2022-09-14T20:06:56.504Z,12.45
2022-09-14T20:09:26.594Z,10.40
2022-09-14T20:11:56.006Z,10.93
2022-09-14T20:14:27.710Z,10.07
2022-09-14T20:16:59.753Z,10.25
2022-09-14T20:19:32.529Z,10.73
2022-09-14T20:22:01.790Z,11.57
2022-09-14T20:24:32.507Z,12.25
2022-09-14T20:27:03.394Z,11.40
2022-09-14T20:29:35.443Z,18.10
2022-09-14T20:32:06.611Z,11.02
2022-09-14T20:34:36.723Z,13.75
2022-09-14T20:37:06.188Z,15.68
2022-09-14T20:39:38.308Z,12.93
2022-09-14T20:42:08.112Z,14.43
2022-09-14T20:44:37.686Z,15.30
2022-09-14T20:47:07.071Z,13.85
2022-09-14T20:49:36.341Z,10.95
2022-09-14T20:52:05.963Z,11.60
2022-09-14T20:54:35.326Z,12.93
2022-09-14T20:57:04.837Z,13.05
2022-09-14T20:59:34.546Z,15.45
2022-09-14T21:02:05.664Z,13.80
2022-09-14T21:04:37.087Z,16.60
2022-09-14T21:07:06.410Z,13.52
2022-09-14T21:09:37.837Z,16.90
2022-09-14T21:12:11.644Z,12.70
2022-09-14T21:14:41.038Z,13.82
2022-09-14T21:17:10.495Z,18.83
2022-09-14T21:19:40.557Z,13.65
2022-09-14T21:22:09.815Z,13.85
2022-09-14T21:24:39.090Z,13.23
2022-09-14T21:27:08.394Z,16.92
2022-09-14T21:29:37.650Z,16.00
2022-09-14T21:32:09.097Z,14.43
2022-09-14T21:34:38.772Z,14.07
2022-09-14T21:37:08.818Z,13.57
2022-09-14T21:39:42.778Z,13.68
2022-09-14T21:42:12.040Z,13.55
2022-09-14T21:44:41.891Z,15.68
2022-09-14T21:47:11.178Z,13.20
2022-09-14T21:49:40.489Z,16.75
2022-09-14T21:52:09.777Z,13.27
2022-09-14T21:54:42.669Z,15.23
2022-09-14T21:57:12.273Z,13.77
2022-09-14T21:59:43.895Z,12.25
2022-09-14T22:02:13.225Z,12.40
2022-09-14T22:04:42.638Z,15.95
2022-09-14T22:07:11.894Z,14.70
2022-09-14T22:09:41.175Z,13.45
2022-09-14T22:12:10.723Z,17.20
2022-09-14T22:14:40.004Z,12.85
2022-09-14T22:17:11.925Z,14.68
2022-09-14T22:19:46.447Z,15.48
2022-09-14T22:22:15.727Z,17.63
2022-09-14T22:24:45.059Z,16.83
2022-09-14T22:27:17.473Z,19.33
2022-09-14T22:29:47.585Z,18.05
2022-09-14T22:32:16.849Z,16.15
2022-09-14T22:34:49.634Z,16.38
2022-09-14T22:37:19.294Z,16.55
2022-09-14T22:39:48.875Z,14.95
2022-09-14T22:42:18.195Z,15.82
2022-09-14T22:44:47.454Z,14.70
2022-09-14T22:47:16.707Z,15.45
2022-09-14T22:49:46.016Z,18.52
2022-09-14T22:52:15.325Z,16.13
2022-09-14T22:54:44.570Z,17.38
2022-09-14T22:57:13.914Z,14.18
2022-09-14T22:59:43.244Z,15.98
2022-09-14T23:02:12.891Z,19.08
2022-09-14T23:04:42.732Z,16.45
2022-09-14T23:07:12.050Z,19.00
2022-09-14T23:09:41.903Z,14.82
2022-09-14T23:12:11.243Z,18.58
2022-09-14T23:14:42.477Z,14.45
2022-09-14T23:17:13.112Z,14.80
2022-09-14T23:19:42.436Z,12.65
2022-09-14T23:22:11.735Z,14.00
2022-09-14T23:24:41.171Z,16.95
2022-09-14T23:27:10.480Z,15.68
2022-09-14T23:29:39.865Z,13.75
2022-09-14T23:32:09.572Z,15.82
2022-09-14T23:34:39.565Z,14.38
2022-09-14T23:37:09.055Z,14.23
2022-09-14T23:39:38.471Z,16.95
2022-09-14T23:42:07.958Z,14.23
2022-09-14T23:44:37.320Z,16.60
2022-09-14T23:47:06.714Z,21.10
2022-09-14T23:49:36.109Z,14.48
2022-09-14T23:52:05.804Z,16.23
2022-09-14T23:54:35.259Z,15.02
2022-09-14T23:57:04.570Z,16.67
2022-09-14T23:59:33.879Z,20.33
